<?xml version="1.0" encoding="UTF-8" standalone="no" ?>
<gpx xmlns="http://www.topografix.com/GPX/1/1" xmlns:xsi="http://www.w3.org/2001/XMLSchema-instance" xsi:schemaLocation="http://www.topografix.com/GPX/1/1 http://www.topografix.com/GPX/1/1/gpx.xsd" version="1.1" creator="VisuGPX - https://www.visugpx.com">
  <metadata>
    <name>Edirne-Sarajevo</name>
  </metadata>
  <trk>
    <name><![CDATA[Tour d'Europe: étape 702]]></name>
    <extensions>
      <line xmlns="http://www.topografix.com/GPX/gpx_style/0/2">
        <color>FFFF00</color>
        <width>4</width>
      </line>
    </extensions>
    <trkseg>
      <trkpt lat="42.4279" lon="18.77223">
        <ele>55.233286</ele>
        <time>2022-05-31T08:07:23.561Z</time>
      </trkpt>
      <trkpt lat="42.42723" lon="18.77231">
        <ele>54.279297</ele>
        <time>2022-05-31T08:12:07.543Z</time>
      </trkpt>
      <trkpt lat="42.42779" lon="18.76918">
        <ele>52.40499</ele>
        <time>2022-05-31T08:15:55.581Z</time>
      </trkpt>
      <trkpt lat="42.42981" lon="18.76924">
        <ele>65.59196</ele>
        <time>2022-05-31T08:17:26.550Z</time>
      </trkpt>
      <trkpt lat="42.43168" lon="18.76928">
        <ele>72.407379</ele>
        <time>2022-05-31T08:19:10.577Z</time>
      </trkpt>
      <trkpt lat="42.43428" lon="18.76845">
        <ele>66.111279</ele>
        <time>2022-05-31T08:20:12.549Z</time>
      </trkpt>
      <trkpt lat="42.43618" lon="18.76694">
        <ele>53.564501</ele>
        <time>2022-05-31T08:20:54.581Z</time>
      </trkpt>
      <trkpt lat="42.43594" lon="18.76493">
        <ele>52.380195</ele>
        <time>2022-05-31T08:21:53.536Z</time>
      </trkpt>
      <trkpt lat="42.43805" lon="18.7642">
        <ele>51.677558</ele>
        <time>2022-05-31T08:22:50.536Z</time>
      </trkpt>
      <trkpt lat="42.43993" lon="18.76261">
        <ele>50.579028</ele>
        <time>2022-05-31T08:23:54.552Z</time>
      </trkpt>
      <trkpt lat="42.44221" lon="18.76223">
        <ele>49.996375</ele>
        <time>2022-05-31T08:24:54.541Z</time>
      </trkpt>
      <trkpt lat="42.44397" lon="18.76396">
        <ele>47.663069</ele>
        <time>2022-05-31T08:25:57.543Z</time>
      </trkpt>
      <trkpt lat="42.44604" lon="18.7652">
        <ele>46.010318</ele>
        <time>2022-05-31T08:26:59.590Z</time>
      </trkpt>
      <trkpt lat="42.44811" lon="18.76565">
        <ele>50.559194</ele>
        <time>2022-05-31T08:28:04.544Z</time>
      </trkpt>
      <trkpt lat="42.45027" lon="18.76485">
        <ele>54.765524</ele>
        <time>2022-05-31T08:29:19.548Z</time>
      </trkpt>
      <trkpt lat="42.45246" lon="18.76501">
        <ele>55.033718</ele>
        <time>2022-05-31T08:30:21.540Z</time>
      </trkpt>
      <trkpt lat="42.45468" lon="18.7657">
        <ele>53.756111</ele>
        <time>2022-05-31T08:31:25.531Z</time>
      </trkpt>
      <trkpt lat="42.45688" lon="18.76541">
        <ele>52.558052</ele>
        <time>2022-05-31T08:32:28.554Z</time>
      </trkpt>
      <trkpt lat="42.45884" lon="18.76505">
        <ele>58.235662</ele>
        <time>2022-05-31T08:33:38.549Z</time>
      </trkpt>
      <trkpt lat="42.46088" lon="18.76411">
        <ele>58.778073</ele>
        <time>2022-05-31T08:34:44.556Z</time>
      </trkpt>
      <trkpt lat="42.46306" lon="18.76391">
        <ele>51.286898</ele>
        <time>2022-05-31T08:35:45.529Z</time>
      </trkpt>
      <trkpt lat="42.46514" lon="18.76367">
        <ele>51.27624</ele>
        <time>2022-05-31T08:36:47.555Z</time>
      </trkpt>
      <trkpt lat="42.46727" lon="18.76303">
        <ele>51.352444</ele>
        <time>2022-05-31T08:37:51.556Z</time>
      </trkpt>
      <trkpt lat="42.4693" lon="18.76384">
        <ele>57.433114</ele>
        <time>2022-05-31T08:38:52.572Z</time>
      </trkpt>
      <trkpt lat="42.47112" lon="18.76443">
        <ele>59.731361</ele>
        <time>2022-05-31T08:40:18.547Z</time>
      </trkpt>
      <trkpt lat="42.47331" lon="18.76477">
        <ele>60.867589</ele>
        <time>2022-05-31T08:41:15.525Z</time>
      </trkpt>
      <trkpt lat="42.47585" lon="18.76484">
        <ele>56.367686</ele>
        <time>2022-05-31T08:41:56.550Z</time>
      </trkpt>
      <trkpt lat="42.4777" lon="18.76342">
        <ele>56.447202</ele>
        <time>2022-05-31T08:42:42.616Z</time>
      </trkpt>
      <trkpt lat="42.47983" lon="18.76366">
        <ele>55.205354</ele>
        <time>2022-05-31T08:43:46.543Z</time>
      </trkpt>
      <trkpt lat="42.48198" lon="18.76403">
        <ele>52.868528</ele>
        <time>2022-05-31T08:44:49.554Z</time>
      </trkpt>
      <trkpt lat="42.48397" lon="18.76488">
        <ele>55.461346</ele>
        <time>2022-05-31T08:45:55.531Z</time>
      </trkpt>
      <trkpt lat="42.48525" lon="18.76662">
        <ele>66.528077</ele>
        <time>2022-05-31T08:47:29.545Z</time>
      </trkpt>
      <trkpt lat="42.4866" lon="18.76567">
        <ele>71.920963</ele>
        <time>2022-05-31T08:48:25.579Z</time>
      </trkpt>
      <trkpt lat="42.48908" lon="18.76446">
        <ele>60.934906</ele>
        <time>2022-05-31T08:49:07.533Z</time>
      </trkpt>
      <trkpt lat="42.49049" lon="18.76237">
        <ele>63.207216</ele>
        <time>2022-05-31T08:50:05.537Z</time>
      </trkpt>
      <trkpt lat="42.49028" lon="18.75971">
        <ele>62.662079</ele>
        <time>2022-05-31T08:51:32.590Z</time>
      </trkpt>
      <trkpt lat="42.49026" lon="18.75651">
        <ele>62.488505</ele>
        <time>2022-05-31T08:52:30.537Z</time>
      </trkpt>
      <trkpt lat="42.48993" lon="18.75307">
        <ele>65.180336</ele>
        <time>2022-05-31T08:53:10.541Z</time>
      </trkpt>
      <trkpt lat="42.48859" lon="18.75085">
        <ele>72.953593</ele>
        <time>2022-05-31T08:53:57.554Z</time>
      </trkpt>
      <trkpt lat="42.48754" lon="18.74812">
        <ele>66.614202</ele>
        <time>2022-05-31T08:54:51.558Z</time>
      </trkpt>
      <trkpt lat="42.48663" lon="18.74496">
        <ele>59.843682</ele>
        <time>2022-05-31T08:55:50.538Z</time>
      </trkpt>
      <trkpt lat="42.48572" lon="18.74189">
        <ele>56.812237</ele>
        <time>2022-05-31T08:56:51.559Z</time>
      </trkpt>
      <trkpt lat="42.48482" lon="18.73935">
        <ele>57.174567</ele>
        <time>2022-05-31T08:57:38.559Z</time>
      </trkpt>
      <trkpt lat="42.48433" lon="18.73685">
        <ele>58.36287</ele>
        <time>2022-05-31T08:58:20.548Z</time>
      </trkpt>
      <trkpt lat="42.48361" lon="18.73381">
        <ele>61.883859</ele>
        <time>2022-05-31T08:59:15.545Z</time>
      </trkpt>
      <trkpt lat="42.48392" lon="18.73124">
        <ele>58.439646</ele>
        <time>2022-05-31T08:59:55.573Z</time>
      </trkpt>
      <trkpt lat="42.48457" lon="18.72875">
        <ele>61.724941</ele>
        <time>2022-05-31T09:00:39.564Z</time>
      </trkpt>
      <trkpt lat="42.48422" lon="18.72592">
        <ele>58.417262</ele>
        <time>2022-05-31T09:01:21.558Z</time>
      </trkpt>
      <trkpt lat="42.48417" lon="18.72326">
        <ele>53.86442</ele>
        <time>2022-05-31T09:02:01.534Z</time>
      </trkpt>
      <trkpt lat="42.48422" lon="18.72053">
        <ele>55.047796</ele>
        <time>2022-05-31T09:02:41.529Z</time>
      </trkpt>
      <trkpt lat="42.48387" lon="18.71756">
        <ele>56.583984</ele>
        <time>2022-05-31T09:03:24.549Z</time>
      </trkpt>
      <trkpt lat="42.48375" lon="18.71441">
        <ele>56.05585</ele>
        <time>2022-05-31T09:04:17.553Z</time>
      </trkpt>
      <trkpt lat="42.48398" lon="18.71147">
        <ele>55.009892</ele>
        <time>2022-05-31T09:04:57.554Z</time>
      </trkpt>
      <trkpt lat="42.48403" lon="18.70841">
        <ele>55.277273</ele>
        <time>2022-05-31T09:05:39.640Z</time>
      </trkpt>
      <trkpt lat="42.4842" lon="18.7055">
        <ele>53.697297</ele>
        <time>2022-05-31T09:06:24.564Z</time>
      </trkpt>
      <trkpt lat="42.48519" lon="18.70303">
        <ele>50.492738</ele>
        <time>2022-05-31T09:07:09.540Z</time>
      </trkpt>
      <trkpt lat="42.48523" lon="18.7">
        <ele>48.464683</ele>
        <time>2022-05-31T09:08:10.530Z</time>
      </trkpt>
      <trkpt lat="42.48649" lon="18.69753">
        <ele>48.58731</ele>
        <time>2022-05-31T09:10:18.555Z</time>
      </trkpt>
      <trkpt lat="42.48799" lon="18.69529">
        <ele>49.172956</ele>
        <time>2022-05-31T09:12:40.543Z</time>
      </trkpt>
      <trkpt lat="42.48985" lon="18.69338">
        <ele>53.755431</ele>
        <time>2022-05-31T09:38:32.531Z</time>
      </trkpt>
      <trkpt lat="42.49171" lon="18.69189">
        <ele>45.41661</ele>
        <time>2022-05-31T09:39:21.516Z</time>
      </trkpt>
      <trkpt lat="42.49395" lon="18.69161">
        <ele>40.700306</ele>
        <time>2022-05-31T09:40:19.525Z</time>
      </trkpt>
      <trkpt lat="42.49603" lon="18.69111">
        <ele>47.32665</ele>
        <time>2022-05-31T09:41:07.541Z</time>
      </trkpt>
      <trkpt lat="42.49801" lon="18.69212">
        <ele>48.312414</ele>
        <time>2022-05-31T09:41:47.557Z</time>
      </trkpt>
      <trkpt lat="42.50034" lon="18.69271">
        <ele>43.378786</ele>
        <time>2022-05-31T09:42:29.548Z</time>
      </trkpt>
      <trkpt lat="42.50247" lon="18.6926">
        <ele>40.192662</ele>
        <time>2022-05-31T09:43:09.544Z</time>
      </trkpt>
      <trkpt lat="42.50389" lon="18.69455">
        <ele>45.012699</ele>
        <time>2022-05-31T09:43:49.535Z</time>
      </trkpt>
      <trkpt lat="42.50597" lon="18.69377">
        <ele>51.279296</ele>
        <time>2022-05-31T09:45:05.531Z</time>
      </trkpt>
      <trkpt lat="42.508" lon="18.69596">
        <ele>48.353452</ele>
        <time>2022-05-31T09:45:45.540Z</time>
      </trkpt>
      <trkpt lat="42.51028" lon="18.69652">
        <ele>43.949725</ele>
        <time>2022-05-31T09:46:39.535Z</time>
      </trkpt>
      <trkpt lat="42.51215" lon="18.69569">
        <ele>44.711979</ele>
        <time>2022-05-31T09:47:22.548Z</time>
      </trkpt>
      <trkpt lat="42.51397" lon="18.69485">
        <ele>43.637538</ele>
        <time>2022-05-31T09:48:03.536Z</time>
      </trkpt>
      <trkpt lat="42.51605" lon="18.69309">
        <ele>43.886757</ele>
        <time>2022-05-31T09:48:59.574Z</time>
      </trkpt>
      <trkpt lat="42.51718" lon="18.69028">
        <ele>47.92425</ele>
        <time>2022-05-31T09:49:54.544Z</time>
      </trkpt>
      <trkpt lat="42.51719" lon="18.68753">
        <ele>50.90949</ele>
        <time>2022-05-31T09:50:38.553Z</time>
      </trkpt>
      <trkpt lat="42.5161" lon="18.68507">
        <ele>59.107777</ele>
        <time>2022-05-31T09:51:47.548Z</time>
      </trkpt>
      <trkpt lat="42.51526" lon="18.68285">
        <ele>72.699475</ele>
        <time>2022-05-31T09:53:46.547Z</time>
      </trkpt>
      <trkpt lat="42.51358" lon="18.68164">
        <ele>77.938714</ele>
        <time>2022-05-31T09:55:45.547Z</time>
      </trkpt>
      <trkpt lat="42.51148" lon="18.68031">
        <ele>72.63127</ele>
        <time>2022-05-31T09:56:30.541Z</time>
      </trkpt>
      <trkpt lat="42.50928" lon="18.6787">
        <ele>61.747067</ele>
        <time>2022-05-31T09:57:04.554Z</time>
      </trkpt>
      <trkpt lat="42.50648" lon="18.67687">
        <ele>50.759393</ele>
        <time>2022-05-31T09:57:42.546Z</time>
      </trkpt>
      <trkpt lat="42.5048" lon="18.67439">
        <ele>46.318356</ele>
        <time>2022-05-31T09:58:16.552Z</time>
      </trkpt>
      <trkpt lat="42.50503" lon="18.67172">
        <ele>49.065066</ele>
        <time>2022-05-31T09:59:00.535Z</time>
      </trkpt>
      <trkpt lat="42.50461" lon="18.66896">
        <ele>50.704521</ele>
        <time>2022-05-31T09:59:42.541Z</time>
      </trkpt>
      <trkpt lat="42.50361" lon="18.66717">
        <ele>49.34734</ele>
        <time>2022-05-31T10:00:26.543Z</time>
      </trkpt>
      <trkpt lat="42.50252" lon="18.66501">
        <ele>47.24139</ele>
        <time>2022-05-31T10:01:07.534Z</time>
      </trkpt>
      <trkpt lat="42.5009" lon="18.66297">
        <ele>47.930314</ele>
        <time>2022-05-31T10:02:03.545Z</time>
      </trkpt>
      <trkpt lat="42.49977" lon="18.66085">
        <ele>49.456807</ele>
        <time>2022-05-31T10:02:53.548Z</time>
      </trkpt>
      <trkpt lat="42.49818" lon="18.65893">
        <ele>47.996367</ele>
        <time>2022-05-31T10:03:38.555Z</time>
      </trkpt>
      <trkpt lat="42.49666" lon="18.65693">
        <ele>48.195075</ele>
        <time>2022-05-31T10:04:25.537Z</time>
      </trkpt>
      <trkpt lat="42.49566" lon="18.65443">
        <ele>48.610201</ele>
        <time>2022-05-31T10:05:11.637Z</time>
      </trkpt>
      <trkpt lat="42.4947" lon="18.65224">
        <ele>49.125031</ele>
        <time>2022-05-31T10:05:56.551Z</time>
      </trkpt>
      <trkpt lat="42.49279" lon="18.65096">
        <ele>47.642758</ele>
        <time>2022-05-31T10:06:42.534Z</time>
      </trkpt>
      <trkpt lat="42.49089" lon="18.65025">
        <ele>45.080641</ele>
        <time>2022-05-31T10:07:25.558Z</time>
      </trkpt>
      <trkpt lat="42.48904" lon="18.64933">
        <ele>45.616324</ele>
        <time>2022-05-31T10:08:10.535Z</time>
      </trkpt>
      <trkpt lat="42.48752" lon="18.65135">
        <ele>44.83409</ele>
        <time>2022-05-31T10:08:52.544Z</time>
      </trkpt>
      <trkpt lat="42.48705" lon="18.65409">
        <ele>46.805389</ele>
        <time>2022-05-31T10:09:48.539Z</time>
      </trkpt>
      <trkpt lat="42.48694" lon="18.65722">
        <ele>43.983294</ele>
        <time>2022-05-31T10:10:41.548Z</time>
      </trkpt>
      <trkpt lat="42.48686" lon="18.65996">
        <ele>43.800721</ele>
        <time>2022-05-31T10:11:24.553Z</time>
      </trkpt>
      <trkpt lat="42.487" lon="18.66271">
        <ele>45.416462</ele>
        <time>2022-05-31T10:12:04.544Z</time>
      </trkpt>
      <trkpt lat="42.4863" lon="18.66582">
        <ele>42.338978</ele>
        <time>2022-05-31T10:12:46.582Z</time>
      </trkpt>
      <trkpt lat="42.48581" lon="18.66837">
        <ele>45.936267</ele>
        <time>2022-05-31T10:13:26.589Z</time>
      </trkpt>
      <trkpt lat="42.4848" lon="18.67071">
        <ele>43.761417</ele>
        <time>2022-05-31T10:14:09.543Z</time>
      </trkpt>
      <trkpt lat="42.48441" lon="18.67341">
        <ele>42.900683</ele>
        <time>2022-05-31T10:14:51.552Z</time>
      </trkpt>
      <trkpt lat="42.4834" lon="18.67579">
        <ele>43.469409</ele>
        <time>2022-05-31T10:15:51.557Z</time>
      </trkpt>
      <trkpt lat="42.48234" lon="18.67845">
        <ele>36.031145</ele>
        <time>2022-05-31T10:16:46.541Z</time>
      </trkpt>
      <trkpt lat="42.48109" lon="18.68128">
        <ele>37.080313</ele>
        <time>2022-05-31T10:17:48.578Z</time>
      </trkpt>
      <trkpt lat="42.47993" lon="18.68426">
        <ele>39.453135</ele>
        <time>2022-05-31T10:18:46.557Z</time>
      </trkpt>
      <trkpt lat="42.4785" lon="18.68623">
        <ele>46.494428</ele>
        <time>2022-05-31T10:19:38.552Z</time>
      </trkpt>
      <trkpt lat="42.47701" lon="18.68395">
        <ele>50.75464</ele>
        <time>2022-05-31T10:20:38.555Z</time>
      </trkpt>
      <trkpt lat="42.47507" lon="18.68281">
        <ele>44.832326</ele>
        <time>2022-05-31T10:21:22.544Z</time>
      </trkpt>
      <trkpt lat="42.47318" lon="18.6807">
        <ele>41.063247</ele>
        <time>2022-05-31T10:22:16.548Z</time>
      </trkpt>
      <trkpt lat="42.47123" lon="18.68017">
        <ele>44.856398</ele>
        <time>2022-05-31T10:23:01.539Z</time>
      </trkpt>
      <trkpt lat="42.47024" lon="18.67774">
        <ele>49.029873</ele>
        <time>2022-05-31T10:24:13.556Z</time>
      </trkpt>
      <trkpt lat="42.46848" lon="18.67563">
        <ele>43.823926</ele>
        <time>2022-05-31T10:25:08.551Z</time>
      </trkpt>
      <trkpt lat="42.46663" lon="18.67391">
        <ele>46.325187</ele>
        <time>2022-05-31T10:26:07.554Z</time>
      </trkpt>
      <trkpt lat="42.4645" lon="18.67336">
        <ele>46.048611</ele>
        <time>2022-05-31T10:27:06.548Z</time>
      </trkpt>
      <trkpt lat="42.46242" lon="18.6729">
        <ele>45.614338</ele>
        <time>2022-05-31T10:28:05.664Z</time>
      </trkpt>
      <trkpt lat="42.46089" lon="18.67483">
        <ele>44.024569</ele>
        <time>2022-05-31T10:28:48.559Z</time>
      </trkpt>
      <trkpt lat="42.45953" lon="18.67434">
        <ele>47.017711</ele>
        <time>2022-05-31T10:29:35.546Z</time>
      </trkpt>
      <trkpt lat="42.45931" lon="18.67153">
        <ele>49.789506</ele>
        <time>2022-05-31T10:30:19.570Z</time>
      </trkpt>
      <trkpt lat="42.45791" lon="18.6691">
        <ele>45.636158</ele>
        <time>2022-05-31T10:31:10.543Z</time>
      </trkpt>
      <trkpt lat="42.45703" lon="18.66623">
        <ele>43.992051</ele>
        <time>2022-05-31T10:32:02.548Z</time>
      </trkpt>
      <trkpt lat="42.45642" lon="18.66363">
        <ele>42.616273</ele>
        <time>2022-05-31T10:32:45.545Z</time>
      </trkpt>
      <trkpt lat="42.45528" lon="18.66115">
        <ele>44.383912</ele>
        <time>2022-05-31T10:33:42.557Z</time>
      </trkpt>
      <trkpt lat="42.45346" lon="18.65914">
        <ele>44.972082</ele>
        <time>2022-05-31T10:34:36.553Z</time>
      </trkpt>
      <trkpt lat="42.45174" lon="18.65738">
        <ele>41.640242</ele>
        <time>2022-05-31T10:35:32.580Z</time>
      </trkpt>
      <trkpt lat="42.45269" lon="18.65536">
        <ele>45.696616</ele>
        <time>2022-05-31T10:36:34.535Z</time>
      </trkpt>
      <trkpt lat="42.45344" lon="18.65339">
        <ele>51.483115</ele>
        <time>2022-05-31T10:37:57.550Z</time>
      </trkpt>
      <trkpt lat="42.45162" lon="18.65153">
        <ele>50.232133</ele>
        <time>2022-05-31T10:38:39.555Z</time>
      </trkpt>
      <trkpt lat="42.45023" lon="18.65083">
        <ele>44.678003</ele>
        <time>2022-05-31T10:39:52.537Z</time>
      </trkpt>
      <trkpt lat="42.44928" lon="18.64813">
        <ele>42.966513</ele>
        <time>2022-05-31T10:41:22.597Z</time>
      </trkpt>
      <trkpt lat="42.448" lon="18.64553">
        <ele>42.162772</ele>
        <time>2022-05-31T10:42:22.549Z</time>
      </trkpt>
      <trkpt lat="42.44657" lon="18.64299">
        <ele>42.798949</ele>
        <time>2022-05-31T10:43:17.575Z</time>
      </trkpt>
      <trkpt lat="42.44499" lon="18.64067">
        <ele>43.421612</ele>
        <time>2022-05-31T10:44:10.580Z</time>
      </trkpt>
      <trkpt lat="42.44378" lon="18.63797">
        <ele>44.661927</ele>
        <time>2022-05-31T10:45:05.543Z</time>
      </trkpt>
      <trkpt lat="42.44297" lon="18.63502">
        <ele>42.5847</ele>
        <time>2022-05-31T10:46:14.549Z</time>
      </trkpt>
      <trkpt lat="42.44185" lon="18.63235">
        <ele>42.20169</ele>
        <time>2022-05-31T10:47:13.549Z</time>
      </trkpt>
      <trkpt lat="42.44101" lon="18.62997">
        <ele>42.536021</ele>
        <time>2022-05-31T11:22:59.543Z</time>
      </trkpt>
      <trkpt lat="42.44027" lon="18.62691">
        <ele>40.664538</ele>
        <time>2022-05-31T11:23:58.548Z</time>
      </trkpt>
      <trkpt lat="42.43948" lon="18.62404">
        <ele>38.87159</ele>
        <time>2022-05-31T11:24:55.572Z</time>
      </trkpt>
      <trkpt lat="42.43921" lon="18.62106">
        <ele>40.458829</ele>
        <time>2022-05-31T11:25:50.532Z</time>
      </trkpt>
      <trkpt lat="42.43863" lon="18.61838">
        <ele>37.912805</ele>
        <time>2022-05-31T11:26:45.545Z</time>
      </trkpt>
      <trkpt lat="42.43838" lon="18.61542">
        <ele>39.971822</ele>
        <time>2022-05-31T11:27:36.548Z</time>
      </trkpt>
      <trkpt lat="42.43703" lon="18.61354">
        <ele>44.833342</ele>
        <time>2022-05-31T11:28:31.548Z</time>
      </trkpt>
      <trkpt lat="42.43621" lon="18.61073">
        <ele>45.668943</ele>
        <time>2022-05-31T11:29:29.549Z</time>
      </trkpt>
      <trkpt lat="42.43513" lon="18.6082">
        <ele>48.840666</ele>
        <time>2022-05-31T11:30:29.547Z</time>
      </trkpt>
      <trkpt lat="42.43489" lon="18.60511">
        <ele>47.6348</ele>
        <time>2022-05-31T11:31:32.531Z</time>
      </trkpt>
      <trkpt lat="42.43499" lon="18.60249">
        <ele>48.986214</ele>
        <time>2022-05-31T11:32:33.535Z</time>
      </trkpt>
      <trkpt lat="42.43521" lon="18.6001">
        <ele>52.459356</ele>
        <time>2022-05-31T11:33:42.521Z</time>
      </trkpt>
      <trkpt lat="42.43669" lon="18.59869">
        <ele>55.866088</ele>
        <time>2022-05-31T11:36:12.511Z</time>
      </trkpt>
      <trkpt lat="42.43765" lon="18.59557">
        <ele>56.344429</ele>
        <time>2022-05-31T11:36:59.527Z</time>
      </trkpt>
      <trkpt lat="42.43826" lon="18.59281">
        <ele>63.818542</ele>
        <time>2022-05-31T11:38:16.544Z</time>
      </trkpt>
      <trkpt lat="42.43764" lon="18.5901">
        <ele>51.202785</ele>
        <time>2022-05-31T11:39:01.544Z</time>
      </trkpt>
      <trkpt lat="42.43863" lon="18.58746">
        <ele>47.687442</ele>
        <time>2022-05-31T11:39:53.580Z</time>
      </trkpt>
      <trkpt lat="42.44011" lon="18.58508">
        <ele>49.148647</ele>
        <time>2022-05-31T11:40:56.545Z</time>
      </trkpt>
      <trkpt lat="42.44186" lon="18.58319">
        <ele>51.115229</ele>
        <time>2022-05-31T11:41:51.555Z</time>
      </trkpt>
      <trkpt lat="42.44343" lon="18.58111">
        <ele>52.747943</ele>
        <time>2022-05-31T11:42:51.547Z</time>
      </trkpt>
      <trkpt lat="42.44444" lon="18.57873">
        <ele>53.208318</ele>
        <time>2022-05-31T11:44:16.544Z</time>
      </trkpt>
      <trkpt lat="42.44647" lon="18.57681">
        <ele>51.530719</ele>
        <time>2022-05-31T11:44:58.543Z</time>
      </trkpt>
      <trkpt lat="42.44824" lon="18.5751">
        <ele>53.287084</ele>
        <time>2022-05-31T11:45:43.565Z</time>
      </trkpt>
      <trkpt lat="42.45014" lon="18.57358">
        <ele>48.458796</ele>
        <time>2022-05-31T11:46:32.544Z</time>
      </trkpt>
      <trkpt lat="42.45162" lon="18.57193">
        <ele>49.57053</ele>
        <time>2022-05-31T11:47:13.548Z</time>
      </trkpt>
      <trkpt lat="42.45296" lon="18.56989">
        <ele>54.188261</ele>
        <time>2022-05-31T11:47:58.532Z</time>
      </trkpt>
      <trkpt lat="42.4529" lon="18.56773">
        <ele>60.253881</ele>
        <time>2022-05-31T11:49:28.518Z</time>
      </trkpt>
      <trkpt lat="42.45361" lon="18.56527">
        <ele>60.653937</ele>
        <time>2022-05-31T11:50:39.528Z</time>
      </trkpt>
      <trkpt lat="42.45433" lon="18.56381">
        <ele>51.7517</ele>
        <time>2022-05-31T11:51:27.523Z</time>
      </trkpt>
      <trkpt lat="42.45452" lon="18.56069">
        <ele>49.526074</ele>
        <time>2022-05-31T11:52:38.520Z</time>
      </trkpt>
      <trkpt lat="42.45386" lon="18.55845">
        <ele>56.044831</ele>
        <time>2022-05-31T11:53:56.512Z</time>
      </trkpt>
      <trkpt lat="42.45242" lon="18.55666">
        <ele>62.538831</ele>
        <time>2022-05-31T11:55:45.523Z</time>
      </trkpt>
      <trkpt lat="42.45163" lon="18.55406">
        <ele>72.762999</ele>
        <time>2022-05-31T11:57:19.516Z</time>
      </trkpt>
      <trkpt lat="42.45064" lon="18.55167">
        <ele>77.029944</ele>
        <time>2022-05-31T11:58:23.529Z</time>
      </trkpt>
      <trkpt lat="42.45069" lon="18.54903">
        <ele>77.194975</ele>
        <time>2022-05-31T11:59:35.544Z</time>
      </trkpt>
      <trkpt lat="42.45103" lon="18.5462">
        <ele>82.261554</ele>
        <time>2022-05-31T12:00:55.551Z</time>
      </trkpt>
      <trkpt lat="42.45128" lon="18.54487">
        <ele>82.261554</ele>
        <time>2022-05-31T12:03:09.382Z</time>
      </trkpt>
    </trkseg>
  </trk>
</gpx>